Time;durP1;ratioP1;P1;durP2;ratioP2;P2;SDS_P1;SDS_P2;PMS_P1;PMS_P2;Temp;Humidity;BMP_temperature;BMP_pressure;BME280_temperature;BME280_humidity;BME280_pressure;Samples;Min_cycle;Max_cycle;Signal;HPM_P1;HPM_P2
2021/07/12 00:00:17;;;;;;;8.10;6.35;;;;;;;26.57;51.22;100116.26;1770071;80;21493;-55
2021/07/12 00:02:45;;;;;;;7.75;6.12;;;;;;;26.54;50.86;100110.05;1771618;80;21122;-55
2021/07/12 00:05:13;;;;;;;7.80;5.65;;;;;;;26.49;50.79;100108.89;1771423;80;20940;-55
2021/07/12 00:07:40;;;;;;;12.70;6.17;;;;;;;26.48;50.96;100114.14;1772206;80;26621;-55
2021/07/12 00:10:10;;;;;;;7.70;5.60;;;;;;;26.49;50.80;100115.76;1769715;80;20939;-55
2021/07/12 00:12:38;;;;;;;13.58;6.30;;;;;;;26.48;50.75;100112.19;1770071;80;20998;-55
2021/07/12 00:15:08;;;;;;;12.90;6.85;;;;;;;26.47;51.06;100107.02;1771910;79;20944;-54
2021/07/12 00:17:35;;;;;;;;;;;;;;;26.45;51.35;100110.68;1776478;80;20988;-55
2021/07/12 00:20:04;;;;;;;;;;;;;;;26.43;51.49;100112.39;1773961;80;20096;-55
2021/07/12 00:22:30;;;;;;;;;;;;;;;26.40;51.73;100106.19;1773614;80;20196;-54
2021/07/12 00:24:58;;;;;;;;;;;;;;;26.36;51.85;100107.40;1772172;80;20113;-55
2021/07/12 00:27:25;;;;;;;;;;;;;;;26.34;52.03;100104.19;1775438;80;21784;-56
2021/07/12 00:29:51;;;;;;;;;;;;;;;26.33;52.05;100106.69;1774340;80;20142;-55
2021/07/12 00:32:18;;;;;;;;;;;;;;;26.30;52.11;100105.98;1773528;80;20163;-55
2021/07/12 00:34:46;;;;;;;;;;;;;;;26.26;52.20;100111.09;1765454;80;20155;-56
2021/07/12 00:37:12;;;;;;;;;;;;;;;26.20;52.38;100112.64;1755557;81;20419;-56
2021/07/12 00:39:39;;;;;;;;;;;;;;;26.18;52.71;100116.30;1772238;80;21142;-55
2021/07/12 00:42:05;;;;;;;;;;;;;;;26.15;52.94;100116.95;1756765;81;20469;-56
2021/07/12 00:44:32;;;;;;;;;;;;;;;26.11;53.01;100109.13;1760471;81;20087;-55
2021/07/12 00:46:58;;;;;;;;;;;;;;;26.09;53.25;100111.41;1758096;81;20395;-53
2021/07/12 00:49:25;;;;;;;;;;;;;;;26.05;53.39;100113.99;1754444;81;20121;-55
2021/07/12 00:51:54;;;;;;;;;;;;;;;26.01;53.65;100113.61;1762470;80;21103;-55
2021/07/12 00:54:27;;;;;;;;;;;;;;;25.94;53.66;100116.84;1759018;81;20130;-55
2021/07/12 00:56:50;;;;;;;;;;;;;;;25.87;53.80;100115.17;1760598;80;20142;-54
2021/07/12 00:59:17;;;;;;;;;;;;;;;25.78;54.00;100114.37;1759410;81;20087;-54
2021/07/12 01:01:44;;;;;;;;;;;;;;;25.71;54.25;100113.52;1752952;81;20110;-55
2021/07/12 01:04:13;;;;;;;;;;;;;;;25.63;54.49;100108.28;1758704;81;20095;-54
2021/07/12 01:06:40;;;;;;;;;;;;;;;25.56;54.57;100113.47;1757863;81;20105;-54
2021/07/12 01:09:06;;;;;;;;;;;;;;;25.49;54.84;100106.28;1756550;80;20413;-55
2021/07/12 01:12:09;;;;;;;;;;;;;;;25.42;55.10;100105.97;1758167;81;20120;-55
2021/07/12 01:14:54;;;;;;;;;;;;;;;25.37;55.31;100115.17;1763977;81;20641;-55
2021/07/12 01:17:46;;;;;;;;;;;;;;;25.30;55.59;100109.34;1759587;80;20700;-55
2021/07/12 01:20:42;;;;;;;;;;;;;;;25.24;55.83;100110.64;1756059;81;20093;-55
2021/07/12 01:23:38;;;;;;;;;;;;;;;25.18;55.81;100109.98;1755661;81;20180;-55
2021/07/12 01:26:34;;;;;;;;;;;;;;;25.10;55.97;100114.89;1757985;81;20233;-56
2021/07/12 01:29:19;;;;;;;;;;;;;;;24.99;56.12;100116.58;1756647;81;20093;-55
2021/07/12 01:32:18;;;;;;;;;;;;;;;24.89;56.39;100119.64;1756630;81;21156;-55
2021/07/12 01:35:00;;;;;;;;;;;;;;;24.80;56.80;100119.63;1758093;81;20085;-56
2021/07/12 01:37:35;;;;;;;;;;;;;;;24.73;57.21;100125.34;1759957;81;20640;-55
2021/07/12 01:40:08;;;;;;;;;;;;;;;24.68;57.32;100124.93;1757886;81;20207;-56
2021/07/12 01:42:45;;;;;;;;;;;;;;;24.62;57.46;100116.62;1758545;81;20238;-55
2021/07/12 01:45:14;;;;;;;;;;;;;;;24.57;57.75;100114.81;1757136;81;21972;-55
2021/07/12 01:47:57;;;;;;;;;;;;;;;24.53;57.87;100118.48;1754788;81;20414;-54
2021/07/12 01:50:34;;;;;;;;;;;;;;;24.45;58.12;100119.50;1728309;80;20111;-55
2021/07/12 01:53:15;;;;;;;;;;;;;;;24.42;58.50;100109.18;1755672;81;20132;-54
2021/07/12 01:56:00;;;;;;;;;;;;;;;24.38;58.56;100108.77;1757741;81;20117;-54
2021/07/12 01:58:37;;;;;;;;;;;;;;;24.36;58.64;100110.45;1755304;81;20483;-55
2021/07/12 02:01:05;;;;;;;;;;;;;;;24.33;58.79;100113.03;1757334;81;20079;-54
2021/07/12 02:03:33;;;;;;;;;;;;;;;24.28;59.02;100114.78;1756820;81;20216;-54
2021/07/12 02:06:02;;;;;;;;;;;;;;;24.25;59.05;100108.58;1758742;81;20142;-56
2021/07/12 02:08:29;;;;;;;;;;;;;;;24.26;59.15;100111.56;1759971;81;20166;-57
2021/07/12 02:10:57;;;;;;;;;;;;;;;24.23;59.27;100108.06;1735564;81;20189;-56
2021/07/12 02:13:27;;;;;;;;;;;;;;;24.23;59.34;100120.39;1761218;81;20082;-57
2021/07/12 02:16:00;;;;;;;;;;;;;;;24.22;59.40;100121.53;1760646;80;20163;-55
2021/07/12 02:18:28;;;;;;;;;;;;;;;24.22;59.49;100120.16;1758192;81;20115;-54
2021/07/12 02:20:58;;;;;;;;;;;;;;;24.22;59.50;100121.53;1744854;81;20427;-55
2021/07/12 02:23:26;;;;;;;;;;;;;;;24.22;59.70;100127.01;1758584;81;21175;-54
2021/07/12 02:25:55;;;;;;;;;;;;;;;24.21;59.80;100120.48;1757730;81;20147;-55
2021/07/12 02:28:22;;;;;;;;;;;;;;;24.21;59.90;100119.91;1756910;81;20142;-55
2021/07/12 02:30:48;;;;;;;;;;;;;;;24.25;59.98;100124.21;1755421;81;20486;-54
2021/07/12 02:33:15;;;;;;;;;;;;;;;24.22;59.96;100120.16;1757193;81;20121;-54
2021/07/12 02:35:42;;;;;;;;;;;;;;;24.18;60.11;100115.64;1760764;80;21143;-54
2021/07/12 02:38:09;;;;;;;;;;;;;;;24.14;60.36;100117.64;1757907;81;20129;-55
2021/07/12 02:40:37;;;;;;;;;;;;;;;24.08;60.80;100116.14;1757068;81;20436;-55
2021/07/12 02:43:03;;;;;;;;;;;;;;;24.00;61.11;100121.03;1757904;81;20126;-55
2021/07/12 02:45:31;;;;;;;;;;;;;;;24.02;61.30;100124.25;1756463;81;20078;-54
2021/07/12 02:47:57;;;;;;;;;;;;;;;24.06;61.30;100123.08;1756353;81;21148;-55
2021/07/12 02:50:25;;;;;;;;;;;;;;;24.08;61.42;100121.62;1756384;81;20428;-55
2021/07/12 02:52:59;;;;;;;;;;;;;;;24.11;61.57;100129.77;1758675;81;20081;-54
2021/07/12 02:55:25;;;;;;;;;;;;;;;24.13;61.66;100122.86;1759494;81;20091;-55
2021/07/12 02:57:53;;;;;;;;;;;;;;;24.16;61.73;100124.71;1756987;81;20087;-55
2021/07/12 03:00:21;;;;;;;;;;;;;;;24.19;61.83;100124.08;1756743;81;21042;-55
2021/07/12 03:02:47;;;;;;;;;;;;;;;24.25;61.86;100126.38;1755164;81;20082;-55
2021/07/12 03:05:15;;;;;;;;;;;;;;;24.33;61.82;100126.73;1758067;81;20120;-55
2021/07/12 03:07:45;;;;;;;;;;;;;;;24.39;61.79;100123.52;1759494;81;20433;-57
2021/07/12 03:10:15;;;;;;;;;;;;;;;24.44;61.88;100126.67;1759445;81;20114;-55
2021/07/12 03:12:51;;;;;;;;;;;;;;;24.47;61.90;100117.84;1756848;81;21129;-55
2021/07/12 03:15:19;;;;;;;;;;;;;;;24.51;62.05;100116.05;1757051;81;20114;-56
2021/07/12 03:17:50;;;;;;;;;;;;;;;24.61;61.94;100117.73;1759774;79;20071;-55
2021/07/12 03:20:17;;;;;;;;;;;;;;;24.71;61.79;100113.33;1758000;81;20111;-55
2021/07/12 03:22:48;;;;;;;;;;;;;;;24.70;61.71;100117.76;1757898;81;20199;-55
2021/07/12 03:25:16;;;;;;;;;;;;;;;24.70;61.67;100112.28;1758019;81;21139;-55
2021/07/12 03:27:43;;;;;;;;;;;;;;;24.75;61.79;100104.72;1758157;81;20135;-55
2021/07/12 03:30:11;;;;;;;;;;;;;;;24.85;61.65;100104.95;1729981;81;20196;-56
2021/07/12 03:32:37;;;;;;;;;;;;;;;24.97;61.42;100102.41;1757803;81;20079;-56
2021/07/12 03:35:05;;;;;;;;;;;;;;;25.09;61.29;100094.91;1747641;81;20095;-56
2021/07/12 03:37:31;;;;;;;;;;;;;;;25.21;60.67;100099.74;1758011;81;21152;-56
2021/07/12 03:39:59;;;;;;;;;;;;;;;25.33;60.41;100097.75;1757839;81;20127;-55
2021/07/12 03:42:27;;;;;;;;;;;;;;;25.44;59.58;100095.47;1756265;81;20119;-56
2021/07/12 03:44:54;;;;;;;;;;;;;;;25.67;59.00;100098.82;1755502;81;20147;-52
2021/07/12 03:47:26;;;;;;;;;;;;;;;26.11;57.81;100088.53;1767468;80;20086;-54
2021/07/12 03:49:53;;;;;;;;;;;;;;;26.58;56.64;100089.02;1758020;81;21152;-53
2021/07/12 03:52:19;;;;;;;;;;;;;;;27.17;54.88;100085.95;1757265;81;20170;-55
2021/07/12 03:54:46;;;;;;;;;;;;;;;27.99;53.98;100081.19;1756824;81;20122;-55
2021/07/12 03:57:13;;;;;;;;;;;;;;;28.98;51.58;100076.97;1755566;81;20174;-56
2021/07/12 03:59:39;;;;;;;;;;;;;;;29.89;48.30;100081.05;1762082;81;20157;-57
2021/07/12 04:02:05;;;;;;;;;;;;;;;30.72;46.49;100081.02;1758943;81;21158;-57
2021/07/12 04:04:33;;;;;;;;;;;;;;;31.49;44.26;100080.60;1757783;81;20147;-56
2021/07/12 04:06:59;;;;;;;;;;;;;;;32.14;42.09;100077.83;1756377;81;20126;-56
2021/07/12 04:09:25;;;;;;;;;;;;;;;32.56;41.00;100075.27;1758920;80;20427;-56
2021/07/12 04:11:55;;;;;;;;;;;;;;;32.67;40.32;100079.00;1756854;81;20113;-56
2021/07/12 04:14:20;;;;;;;;;;;;;;;32.66;40.48;100081.55;1757101;81;20712;-56
2021/07/12 04:16:48;;;;;;;;;;;;;;;32.54;40.19;100073.44;1757258;81;20168;-57
2021/07/12 04:19:14;;;;;;;;;;;;;;;31.90;41.33;100080.96;1755116;81;20400;-57
2021/07/12 04:21:41;;;;;;;;;;;;;;;31.20;43.01;100086.97;1758561;81;20122;-56
2021/07/12 04:24:08;;;;;;;;;;;;;;;30.65;43.99;100087.78;1758137;81;20126;-56
2021/07/12 04:26:34;;;;;;;;;;;;;;;30.07;45.32;100099.45;1759116;79;21727;-55
2021/07/12 04:29:01;;;;;;;;;;;;;;;29.61;46.51;100098.45;1757651;81;20112;-56
2021/07/12 04:31:27;;;;;;;;;;;;;;;29.23;47.14;100097.02;1759578;80;20116;-56
2021/07/12 04:33:54;;;;;;;;;;;;;;;28.92;48.10;100098.47;1758548;81;20490;-55
2021/07/12 04:36:20;;;;;;;;;;;;;;;28.68;48.76;100097.14;1764988;79;20189;-56
2021/07/12 04:38:46;;;;;;;;;;;;;;;28.42;49.26;100096.92;1774846;80;21767;-55
2021/07/12 04:41:13;;;;;;;;;;;;;;;28.06;50.28;100104.02;1774505;80;20090;-57
2021/07/12 04:43:39;;;;;;;;;;;;;;;27.77;51.18;100114.05;1774484;80;20070;-56
2021/07/12 04:46:07;;;;;;;;;;;;;;;27.65;51.92;100114.00;1774633;80;20138;-59
2021/07/12 04:48:34;;;;;;;;;;;;;;;27.75;51.89;100106.14;1778100;79;20431;-56
2021/07/12 04:51:00;;;;;;;;;;;;;;;28.21;51.23;100105.28;1773134;80;21107;-55
2021/07/12 04:53:27;;;;;;;;;;;;;;;28.66;50.30;100103.00;1773219;80;20121;-56
2021/07/12 04:55:53;;;;;;;;;;;;;;;29.09;50.09;100102.89;1772094;80;20172;-57
2021/07/12 04:58:20;;;;;;;;;;;;;;;29.96;48.76;100098.37;1773549;80;20152;-57
2021/07/12 05:00:47;;;;;;;;;;;;;;;31.14;46.26;100094.78;1772969;80;20172;-57
2021/07/12 05:03:17;;;;;;;;;;;;;;;32.33;43.86;100085.03;1777138;80;21162;-57
2021/07/12 05:05:44;;;;;;;;;;;;;;;33.43;41.42;100087.67;1773296;80;20224;-56
2021/07/12 05:08:11;;;;;;;;;;;;;;;34.34;39.70;100101.22;1776427;80;20066;-56
2021/07/12 05:10:40;;;;;;;;;;;;;;;35.08;37.72;100104.02;1774271;80;20121;-56
2021/07/12 05:13:06;;;;;;;;;;;;;;;35.75;36.50;100108.19;1774140;80;20461;-56
2021/07/12 05:15:33;;;;;;;;;;;;;;;36.18;35.19;100097.66;1753334;80;21084;-55
2021/07/12 05:18:00;;;;;;;;;;;;;;;36.58;34.85;100102.59;1770412;79;20712;-57
2021/07/12 05:20:26;;;;;;;;;;;;;;;37.10;34.25;100104.03;1774360;80;20132;-56
2021/07/12 05:22:52;;;;;;;;;;;;;;;37.39;33.05;100098.33;1773904;80;20430;-57
2021/07/12 05:25:18;;;;;;;;;;;;;;;37.31;33.01;100109.54;1773056;80;20082;-56
2021/07/12 05:27:45;;;;;;;;;;;;;;;37.14;33.27;100107.61;1773754;80;21101;-57
2021/07/12 05:30:14;;;;;;;;;;;;;;;37.18;33.37;100108.39;1774467;80;20092;-57
2021/07/12 05:32:41;;;;;;;;;;;;;;;37.45;33.15;100111.44;1776636;80;20113;-56
2021/07/12 05:35:09;;;;;;;;;;;;;;;37.83;32.63;100125.59;1771640;80;20080;-56
2021/07/12 05:37:37;;;;;;;;;;;;;;;38.18;31.23;100125.72;1758207;80;20098;-56
2021/07/12 05:40:04;;;;;;;;;;;;;;;37.92;30.93;100126.52;1756614;81;21141;-56
2021/07/12 05:42:31;;;;;;;;;;;;;;;37.42;31.86;100130.42;1761727;81;20127;-55
2021/07/12 05:44:57;;;;;;;;;;;;;;;37.08;32.89;100119.80;1758570;81;20085;-57
2021/07/12 05:47:24;;;;;;;;;;;;;;;37.16;33.13;100121.37;1754609;81;20086;-56
2021/07/12 05:49:51;;;;;;;;;;;;;;;37.38;32.69;100115.67;1756389;81;20473;-56
2021/07/12 05:52:17;;;;;;;;;;;;;;;37.61;32.50;100121.34;1759515;81;21096;-56
2021/07/12 05:54:43;;;;;;;;;;;;;;;37.85;31.75;100119.00;1757827;81;20118;-56
2021/07/12 05:57:10;;;;;;;;;;;;;;;37.95;31.50;100120.10;1757589;81;20157;-55
2021/07/12 05:59:36;;;;;;;;;;;;;;;37.79;31.57;100126.83;1757749;81;20093;-55
2021/07/12 06:02:04;;;;;;;;;;;;;;;37.30;32.85;100126.72;1757983;81;20419;-56
2021/07/12 06:04:30;;;;;;;;;;;;;;;36.89;33.59;100137.03;1754679;81;21073;-56
2021/07/12 06:06:57;;;;;;;;;;;;;;;36.36;34.01;100135.94;1758994;81;20119;-57
2021/07/12 06:09:23;;;;;;;;;;;;;;;35.83;35.26;100138.28;1756761;81;20142;-57
2021/07/12 06:11:49;;;;;;;;;;;;;;;35.44;35.71;100137.61;1758368;81;20087;-56
2021/07/12 06:14:16;;;;;;;;;;;;;;;35.08;36.86;100139.61;1757809;81;20161;-56
2021/07/12 06:16:42;;;;;;;;;;;;;;;34.79;37.35;100133.71;1757181;81;21207;-56
2021/07/12 06:19:10;;;;;;;;;;;;;;;34.36;37.75;100139.17;1754709;81;20144;-57
2021/07/12 06:21:37;;;;;;;;;;;;;;;33.75;38.62;100133.67;1759091;81;20136;-55
2021/07/12 06:24:04;;;;;;;;;;;;;;;33.16;39.91;100134.16;1758609;81;20142;-56
2021/07/12 06:26:30;;;;;;;;;;;;;;;32.69;40.83;100134.14;1758378;81;20142;-56
2021/07/12 06:28:56;;;;;;;;;;;;;;;32.30;41.87;100134.52;1758118;81;21152;-56
2021/07/12 06:31:23;;;;;;;;;;;;;;;32.06;42.77;100144.58;1757140;81;20091;-55
2021/07/12 06:33:49;;;;;;;;;;;;;;;31.94;43.34;100140.02;1756028;81;20233;-57
2021/07/12 06:36:15;;;;;;;;;;;;;;;31.84;43.98;100140.03;1764213;79;20136;-56
2021/07/12 06:38:42;;;;;;;;;;;;;;;31.66;43.92;100137.54;1774889;80;20707;-55
2021/07/12 06:41:09;;;;;;;;;;;;;;;31.24;44.51;100137.11;1774032;80;21159;-56
2021/07/12 06:43:35;;;;;;;;;;;;;;;30.76;45.64;100136.44;1775105;80;20493;-57
2021/07/12 06:46:02;;;;;;;;;;;;;;;30.38;46.58;100142.84;1773242;80;20093;-57
2021/07/12 06:48:29;;;;;;;;;;;;;;;29.96;47.76;100140.63;1773766;80;21725;-57
2021/07/12 06:50:58;;;;;;;;;;;;;;;29.74;48.71;100142.00;1771956;79;20094;-56
2021/07/12 06:53:24;;;;;;;;;;;;;;;29.57;49.01;100144.48;1774263;80;21125;-56
2021/07/12 06:55:50;;;;;;;;;;;;;;;29.43;49.64;100135.24;1772493;80;20492;-56
2021/07/12 06:58:18;;;;;;;;;;;;;;;29.36;49.78;100135.04;1774338;80;20161;-55
2021/07/12 07:00:45;;;;;;;;;;;;;;;29.33;50.12;100136.53;1772148;80;20081;-57
2021/07/12 07:03:11;;;;;;;;;;;;;;;29.22;50.25;100127.73;1773731;80;20108;-56
2021/07/12 07:05:38;;;;;;;;;;;;;;;29.03;50.66;100133.26;1773817;80;21075;-55
2021/07/12 07:08:06;;;;;;;;;;;;;;;28.96;51.28;100142.14;1773626;79;21592;-56
2021/07/12 07:10:34;;;;;;;;;;;;;;;28.92;50.84;100141.22;1775176;80;20170;-56
2021/07/12 07:13:01;;;;;;;;;;;;;;;28.86;51.04;100147.31;1774591;80;20101;-55
2021/07/12 07:15:28;;;;;;;;;;;;;;;28.81;51.69;100145.05;1776361;80;20448;-56
2021/07/12 07:17:55;;;;;;;;;;;;;;;28.88;51.76;100140.30;1771992;80;21210;-55
2021/07/12 07:20:22;;;;;;;;;;;;;;;29.03;51.05;100144.88;1774599;78;20090;-58
2021/07/12 07:22:48;;;;;;;;;;;;;;;29.17;51.03;100150.83;1774921;80;20459;-55
2021/07/12 07:25:14;;;;;;;;;;;;;;;29.33;50.36;100153.69;1774244;80;20114;-58
2021/07/12 07:27:42;;;;;;;;;;;;;;;29.40;49.76;100155.83;1772353;80;20157;-57
2021/07/12 07:30:10;;;;;;;;;;;;;;;29.47;49.73;100158.80;1775987;80;20159;-57
2021/07/12 07:32:38;;;;;;;;;;;;;;;29.48;49.99;100150.16;1777376;80;20094;-57
2021/07/12 07:35:06;;;;;;;;;;;;;;;29.63;50.33;100154.70;1770806;80;20093;-57
2021/07/12 07:37:33;;;;;;;;;;;;;;;29.80;49.83;100154.39;1774097;80;20101;-57
2021/07/12 07:39:59;;;;;;;;;;;;;;;30.04;49.72;100168.66;1774707;80;20094;-56
2021/07/12 07:42:26;;;;;;;;;;;;;;;30.34;48.98;100166.82;1774140;80;21791;-55
2021/07/12 07:44:52;;;;;;;;;;;;;;;30.57;47.84;100171.17;1775083;80;20122;-56
2021/07/12 07:47:19;;;;;;;;;;;;;;;30.65;47.43;100174.89;1774255;80;20186;-56
2021/07/12 07:49:46;;;;;;;;;;;;;;;30.64;47.13;100169.73;1773434;80;20078;-56
2021/07/12 07:52:12;;;;;;;;;;;;;;;30.57;47.02;100171.76;1775588;80;20445;-57
2021/07/12 07:54:39;;;;;;;;;;;;;;;30.52;47.26;100159.02;1772074;80;21159;-56
2021/07/12 07:57:05;;;;;;;;;;;;;;;30.50;47.32;100155.78;1772736;80;20145;-57
2021/07/12 07:59:32;;;;;;;;;;;;;;;30.37;47.36;100153.70;1773421;80;20096;-58
2021/07/12 08:01:58;;;;;;;;;;;;;;;30.27;47.46;100149.27;1773378;80;20282;-56
2021/07/12 08:04:25;;;;;;;;;;;;;;;30.27;48.04;100149.27;1776869;80;20174;-56
2021/07/12 08:06:54;;;;;;;;;;;;;;;30.37;48.41;100153.70;1775218;80;20068;-56
2021/07/12 08:09:22;;;;;;;;;;;;;;;30.60;48.14;100146.73;1777159;80;20076;-57
2021/07/12 08:11:51;;;;;;;;;;;;;;;30.83;48.23;100141.31;1774026;80;20112;-57
2021/07/12 08:14:19;;;;;;;;;;;;;;;31.09;47.27;100140.13;1774103;80;20153;-56
2021/07/12 08:16:48;;;;;;;;;;;;;;;31.30;45.87;100140.95;1771772;80;20382;-56
2021/07/12 08:19:16;;;;;;;;;;;;;;;31.36;46.31;100135.34;1774464;80;21862;-56
2021/07/12 08:21:43;;;;;;;;;;;;;;;31.48;45.82;100129.66;1773234;80;20100;-56
2021/07/12 08:24:11;;;;;;;;;;;;;;;31.54;45.73;100127.39;1775168;80;20240;-56
2021/07/12 08:26:37;;;;;;;;;;;;;;;31.46;45.71;100123.67;1774318;78;20113;-56
2021/07/12 08:29:04;;;;;;;;;;;;;;;31.26;45.24;100132.59;1776393;80;20120;-56
2021/07/12 08:31:31;;;;;;;;;;;;;;;31.00;45.06;100130.46;1770181;78;21221;-57
2021/07/12 08:33:57;;;;;;;;;;;;;;;30.74;44.52;100131.83;1775188;78;20136;-57
2021/07/12 08:36:24;;;;;;;;;;;;;;;30.58;44.32;100119.45;1772879;80;20090;-56
2021/07/12 08:38:50;;;;;;;;;;;;;;;30.48;44.57;100120.80;1777581;80;20114;-56
2021/07/12 08:41:17;;;;;;;;;;;;;;;30.46;45.54;100120.92;1775353;78;20231;-57
2021/07/12 08:43:45;;;;;;;;;;;;;;;30.58;46.20;100121.63;1771000;80;20096;-58
2021/07/12 08:46:13;;;;;;;;;;;;;;;30.64;46.15;100122.16;1771267;80;20070;-57
2021/07/12 08:48:39;;;;;;;;;;;;;;;30.65;46.40;100124.33;1774250;80;20118;-57
2021/07/12 08:51:06;;;;;;;;;;;;;;;30.62;46.79;100124.45;1773863;80;20135;-57
2021/07/12 08:53:33;;;;;;;;;;;;;;;30.63;46.64;100119.75;1772393;80;20150;-57
2021/07/12 08:55:59;;;;;;;;;;;;;;;30.57;46.75;100121.39;1771326;80;21133;-58
2021/07/12 08:58:29;;;;;;;;;;;;;;;30.57;46.67;100120.02;1776448;80;20153;-57
2021/07/12 09:01:03;;;;;;;;;;;;;;;30.64;45.61;100113.86;1773762;80;20121;-57
2021/07/12 09:03:50;;;;;;;;;;;;;;;30.66;45.04;100117.64;1773397;80;20149;-57
2021/07/12 09:06:20;;;;;;;;;;;;;;;30.57;44.83;100125.55;1777317;80;20434;-56
2021/07/12 09:08:51;;;;;;;;;;;;;;;30.43;45.71;100118.29;1773038;80;21837;-56
2021/07/12 09:11:31;;;;;;;;;;;;;;;30.40;46.39;100117.03;1773196;80;20283;-57
2021/07/12 09:14:09;;;;;;;;;;;;;;;30.40;46.66;100118.98;1773412;80;20085;-57
2021/07/12 09:16:48;;;;;;;;;;;;;;;30.36;47.53;100118.91;1777305;80;20121;-57
2021/07/12 09:19:20;;;;;;;;;;;;;;;30.43;47.66;100118.29;1774300;80;20117;-56
2021/07/12 09:22:00;;;;;;;;;;;;;;;30.50;47.23;100123.98;1771822;80;20145;-56
2021/07/12 09:24:33;;;;;;;;;;;;;;;30.60;46.96;100126.00;1773139;80;20087;-58
2021/07/12 09:27:06;;;;;;;;;;;;;;;30.65;47.14;100121.56;1765475;80;20120;-57
2021/07/12 09:29:50;;;;;;;;;;;;;;;30.65;47.56;100130.64;1774246;80;20191;-57
2021/07/12 09:32:19;;;;;;;;;;;;;;;30.66;46.79;100140.55;1774309;78;20118;-56
2021/07/12 09:34:46;;;;;;;;;;;;;;;30.63;46.76;100132.98;1768200;80;21247;-57
2021/07/12 09:37:16;;;;;;;;;;;;;;;30.67;47.02;100134.43;1770461;80;20095;-58
2021/07/12 09:39:44;;;;;;;;;;;;;;;30.69;46.54;100137.06;1758107;79;20078;-58
2021/07/12 09:42:16;;;;;;;;;;;;;;;30.63;46.73;100141.87;1761089;81;20102;-57
2021/07/12 09:44:46;;;;;;;;;;;;;;;30.55;47.32;100143.08;1763312;81;20087;-57
2021/07/12 09:47:15;;;;;;;;;;;;;;;30.62;47.42;100142.43;1757622;81;21128;-56
2021/07/12 09:49:41;;;;;;;;;;;;;;;30.69;47.60;100142.59;1754577;81;20429;-57
2021/07/12 09:52:12;;;;;;;;;;;;;;;30.83;47.28;100139.93;1760532;81;20095;-57
2021/07/12 09:54:40;;;;;;;;;;;;;;;30.96;46.35;100131.72;1758033;81;20143;-56
2021/07/12 09:57:21;;;;;;;;;;;;;;;31.04;46.25;100129.37;1758134;81;20204;-57
2021/07/12 09:59:54;;;;;;;;;;;;;;;31.09;46.22;100122.73;1756458;81;23256;-56
2021/07/12 10:02:22;;;;;;;;;;;;;;;31.12;46.17;100122.60;1721771;82;20456;-56
2021/07/12 10:04:57;;;;;;;;;;;;;;;31.13;45.95;100121.45;1723961;82;20166;-56
2021/07/12 10:07:24;;;;;;;;;;;;;;;31.13;45.89;100114.53;1723816;82;20090;-56
2021/07/12 10:09:51;;;;;;;;;;;;;;;31.13;45.50;100115.91;1726612;82;20416;-56
2021/07/12 10:12:17;;;;;;;;;;;;;;;31.12;45.98;100112.91;1721529;82;21173;-56
2021/07/12 10:14:44;;;;;;;;;;;;;;;31.08;45.57;100108.11;1723645;82;20109;-58
2021/07/12 10:17:11;;;;;;;;;;;;;;;30.90;46.41;100104.13;1723869;82;20125;-57
2021/07/12 10:19:38;;;;;;;;;;;;;;;30.84;45.98;100111.11;1722632;82;20123;-56
2021/07/12 10:22:06;;;;;;;;;;;;;;;30.73;46.55;100099.83;1723312;81;20148;-57
2021/07/12 10:24:43;;;;;;;;;;;;;;;30.70;46.32;100090.28;1725449;82;21157;-57
2021/07/12 10:27:25;;;;;;;;;;;;;;;30.74;44.59;100086.20;1726617;81;20441;-58
2021/07/12 10:29:55;;;;;;;;;;;;;;;30.61;44.36;100089.69;1703934;82;20484;-57
2021/07/12 10:32:24;;;;;;;;;;;;;;;30.49;45.18;100079.55;1719459;81;20140;-56
2021/07/12 10:35:10;;;;;;;;;;;;;;;30.54;44.93;100082.61;1723521;82;20212;-59
2021/07/12 10:37:40;;;;;;;;;;;;;;;30.61;44.76;100078.63;1727290;82;21109;-57
2021/07/12 10:40:11;;;;;;;;;;;;;;;30.57;43.97;100074.38;1733969;82;20448;-57
2021/07/12 10:42:53;;;;;;;;;;;;;;;30.50;44.33;100063.75;1733731;82;20138;-57
2021/07/12 10:45:35;;;;;;;;;;;;;;;30.52;44.61;100058.09;1731620;82;20476;-56
2021/07/12 11:01:40;;;;;;;9.25;6.72;;;;;;;31.21;42.18;100047.88;1757296;80;22281;-55
2021/07/12 11:04:39;;;;;;;7.35;6.62;;;;;;;31.11;42.16;100045.70;1744522;81;20899;-56
2021/07/12 11:07:14;;;;;;;7.45;6.70;;;;;;;31.09;42.47;100042.48;1775307;80;21148;-59
2021/07/12 11:10:00;;;;;;;10.13;7.35;;;;;;;31.11;42.85;100033.25;1761275;80;21041;-55
2021/07/12 11:12:33;;;;;;;7.87;6.85;;;;;;;31.16;41.74;100041.84;1765540;80;20982;-55
2021/07/12 11:15:20;;;;;;;8.28;7.05;;;;;;;31.04;41.99;100031.72;1765266;80;21041;-56
2021/07/12 11:18:07;;;;;;;8.25;7.15;;;;;;;30.95;42.03;100042.98;1775846;80;20913;-55
2021/07/12 11:20:47;;;;;;;9.93;7.25;;;;;;;30.85;42.17;100039.41;1756946;81;21168;-56
2021/07/12 11:23:58;;;;;;;10.68;7.10;;;;;;;30.79;42.85;100041.66;1775505;80;20933;-57
2021/07/12 11:26:30;;;;;;;8.03;7.28;;;;;;;30.80;42.74;100049.38;1734678;81;20927;-56
2021/07/12 11:29:01;;;;;;;8.55;7.28;;;;;;;30.80;43.02;100050.19;1776500;80;20907;-56
2021/07/12 11:31:46;;;;;;;9.28;7.08;;;;;;;30.85;43.17;100058.19;1775651;80;20882;-55
2021/07/12 11:34:29;;;;;;;7.53;6.60;;;;;;;30.90;42.96;100048.23;1771488;80;21078;-56
2021/07/12 11:37:21;;;;;;;12.13;7.03;;;;;;;30.97;43.05;100061.39;1779125;80;21018;-57
2021/07/12 11:39:59;;;;;;;6.87;6.25;;;;;;;31.00;42.88;100066.22;1775730;80;20860;-55
2021/07/12 11:42:31;;;;;;;7.25;6.45;;;;;;;31.02;42.67;100062.53;1776539;80;20947;-55
2021/07/12 11:45:18;;;;;;;10.23;6.92;;;;;;;31.07;42.42;100057.28;1778764;80;21493;-56
2021/07/12 11:47:52;;;;;;;7.40;6.70;;;;;;;31.07;42.01;100054.52;1777358;80;21107;-56
2021/07/12 11:50:30;;;;;;;10.43;7.55;;;;;;;31.00;41.20;100051.59;1763027;80;20857;-56
2021/07/12 11:52:58;;;;;;;9.45;7.62;;;;;;;30.83;41.12;100065.23;1760823;81;20947;-56
2021/07/12 11:55:31;;;;;;;8.20;7.00;;;;;;;30.65;42.03;100064.27;1750108;81;21003;-56
2021/07/12 11:58:01;;;;;;;7.65;6.17;;;;;;;30.63;41.56;100069.38;1748480;81;20951;-56
2021/07/12 12:00:32;;;;;;;6.33;5.72;;;;;;;30.65;42.01;100067.63;1749095;81;21123;-56
2021/07/12 12:03:17;;;;;;;6.75;6.12;;;;;;;30.70;42.07;100065.39;1750187;81;21573;-56
2021/07/12 12:18:16;;;;;;;7.65;5.90;;;;;;;31.50;41.51;100055.31;1809938;77;22560;-56
2021/07/12 12:20:52;;;;;;;6.30;5.70;;;;;;;31.49;41.54;100046.78;1759794;81;21003;-57
2021/07/12 12:23:29;;;;;;;8.63;5.90;;;;;;;31.42;42.17;100047.47;1744881;82;21963;-56
2021/07/12 12:26:13;;;;;;;6.40;5.90;;;;;;;31.40;42.38;100033.17;1744157;82;21007;-57
2021/07/12 12:28:44;;;;;;;8.28;6.70;;;;;;;31.45;42.11;100034.27;1746935;81;21513;-57
2021/07/12 12:31:18;;;;;;;8.70;6.53;;;;;;;31.42;42.33;100032.83;1744455;82;20954;-56
2021/07/12 12:34:02;;;;;;;7.55;5.72;;;;;;;31.35;42.76;100029.34;1744667;82;20979;-57
2021/07/12 12:36:31;;;;;;;7.20;6.12;;;;;;;31.31;43.09;100029.84;1743485;81;21920;-57
2021/07/12 12:39:15;;;;;;;10.38;6.65;;;;;;;31.34;43.33;100020.80;1744467;81;21080;-57
2021/07/12 12:41:54;;;;;;;10.53;6.78;;;;;;;31.39;43.47;100034.92;1744706;82;21336;-55
2021/07/12 12:44:22;;;;;;;15.00;8.00;;;;;;;31.38;43.86;100031.37;1744828;82;21441;-55
2021/07/12 12:46:53;;;;;;;7.78;6.97;;;;;;;31.37;44.45;100033.91;1745075;82;20995;-55
2021/07/12 12:49:32;;;;;;;15.43;7.87;;;;;;;31.33;44.79;100026.15;1744817;82;22066;-55
2021/07/12 12:52:12;;;;;;;23.30;10.10;;;;;;;31.33;45.69;100026.71;1743341;82;20992;-55
2021/07/12 12:54:46;;;;;;;22.35;10.10;;;;;;;31.34;46.39;100030.49;1734288;81;21464;-55
2021/07/12 12:57:14;;;;;;;26.40;10.88;;;;;;;31.13;46.70;100037.03;1744512;82;21473;-56
2021/07/12 12:59:44;;;;;;;16.80;9.85;;;;;;;30.85;47.81;100033.29;1744850;82;20947;-56
2021/07/12 13:02:20;;;;;;;14.63;9.65;;;;;;;30.67;48.35;100043.98;1744661;81;21156;-57
2021/07/12 13:04:52;;;;;;;32.08;9.65;;;;;;;30.57;47.89;100030.73;1745040;82;21045;-57